createdAt,value
2023-01-15T00:01:15.214Z,9.30
2023-01-15T00:07:15.215Z,10.00
2023-01-15T00:13:15.217Z,10.50
2023-01-15T00:19:15.210Z,9.40
2023-01-15T00:25:15.214Z,11.50
2023-01-15T00:31:15.262Z,9.90
2023-01-15T00:37:15.284Z,8.90
2023-01-15T00:43:15.247Z,10.30
2023-01-15T00:49:15.204Z,9.10
2023-01-15T00:55:15.284Z,16.40
2023-01-15T01:01:15.344Z,10.90
2023-01-15T01:07:15.280Z,14.90
2023-01-15T01:13:15.276Z,10.40
2023-01-15T01:19:15.277Z,12.00
2023-01-15T01:25:15.289Z,10.60
2023-01-15T01:31:15.426Z,9.00
2023-01-15T01:37:15.310Z,9.60
2023-01-15T01:43:15.316Z,9.10
2023-01-15T01:49:15.303Z,10.60
2023-01-15T01:55:15.306Z,8.10
2023-01-15T02:01:15.376Z,8.00
2023-01-15T02:07:15.330Z,7.10
2023-01-15T02:13:15.295Z,9.90
2023-01-15T02:19:15.327Z,10.50
2023-01-15T02:25:15.312Z,7.80
2023-01-15T02:31:15.396Z,8.40
2023-01-15T02:49:15.352Z,7.40
2023-01-15T02:55:15.341Z,7.10
2023-01-15T03:01:15.430Z,7.50
2023-01-15T03:07:15.362Z,6.90
2023-01-15T03:13:15.411Z,6.20
2023-01-15T03:19:15.768Z,6.50
2023-01-15T03:25:15.369Z,9.00
2023-01-15T03:31:15.375Z,5.10
2023-01-15T03:37:15.374Z,6.80
2023-01-15T03:43:15.378Z,6.10
2023-01-15T03:49:15.375Z,6.20
2023-01-15T03:55:15.411Z,6.40
2023-01-15T04:01:15.580Z,6.30
2023-01-15T04:07:15.426Z,6.70
2023-01-15T04:13:15.380Z,4.70
2023-01-15T04:19:15.392Z,6.10
2023-01-15T04:25:15.389Z,4.90
2023-01-15T04:31:15.463Z,4.50
2023-01-15T04:37:15.475Z,5.80
2023-01-15T04:43:15.436Z,5.60
2023-01-15T04:49:15.424Z,4.70
2023-01-15T04:55:15.488Z,4.30
2023-01-15T05:01:15.568Z,4.60
2023-01-15T05:07:15.410Z,4.40
2023-01-15T05:13:15.444Z,6.20
2023-01-15T05:19:15.440Z,4.80
2023-01-15T05:25:15.427Z,6.20
2023-01-15T05:31:15.624Z,6.20
2023-01-15T05:37:15.444Z,5.70
2023-01-15T05:43:15.494Z,6.80
2023-01-15T05:49:15.481Z,4.80
2023-01-15T05:55:15.508Z,4.70
2023-01-15T06:01:15.520Z,5.90
2023-01-15T06:07:15.499Z,4.50
2023-01-15T06:13:15.491Z,5.30
2023-01-15T06:19:15.509Z,5.20
2023-01-15T06:25:15.530Z,6.80
2023-01-15T06:31:15.520Z,5.50
2023-01-15T06:37:15.530Z,6.50
2023-01-15T06:43:15.538Z,6.40
2023-01-15T06:49:15.529Z,7.80
2023-01-15T06:55:15.561Z,10.40
2023-01-15T07:01:15.616Z,45.50
2023-01-15T07:07:15.546Z,60.00
2023-01-15T07:13:15.583Z,6.00
2023-01-15T07:19:15.567Z,8.40
2023-01-15T07:25:15.560Z,6.70
2023-01-15T07:31:15.613Z,4.90
2023-01-15T07:37:15.547Z,5.40
2023-01-15T07:43:15.616Z,6.10
2023-01-15T07:49:15.575Z,5.10
2023-01-15T07:55:15.583Z,5.30
2023-01-15T08:07:15.615Z,6.20
2023-01-15T08:13:15.610Z,5.70
2023-01-15T08:19:15.605Z,5.20
2023-01-15T08:25:15.631Z,4.50
2023-01-15T08:31:15.718Z,4.90
2023-01-15T08:37:15.609Z,6.20
2023-01-15T08:43:15.655Z,6.00
2023-01-15T08:49:15.645Z,5.50
2023-01-15T08:55:15.642Z,7.40
2023-01-15T09:01:15.792Z,4.40
2023-01-15T09:07:15.614Z,4.60
2023-01-15T09:13:15.632Z,4.40
2023-01-15T09:19:15.662Z,4.50
2023-01-15T09:25:15.667Z,6.60
2023-01-15T09:31:15.732Z,6.70
2023-01-15T09:37:15.648Z,4.00
2023-01-15T09:43:15.656Z,4.70
2023-01-15T09:49:15.623Z,4.30
2023-01-15T09:55:15.646Z,4.10
2023-01-15T10:01:15.677Z,5.00
2023-01-15T10:07:15.706Z,5.00
2023-01-15T10:13:15.693Z,3.30
2023-01-15T10:19:15.667Z,3.60
2023-01-15T10:25:15.722Z,4.10
2023-01-15T10:31:15.769Z,4.40
2023-01-15T10:37:15.709Z,11.10
2023-01-15T10:43:15.700Z,5.20
2023-01-15T10:49:15.714Z,5.50
2023-01-15T10:55:15.707Z,5.00
2023-01-15T11:01:15.856Z,11.70
2023-01-15T11:07:15.804Z,13.20
2023-01-15T11:13:15.769Z,4.80
2023-01-15T11:19:15.744Z,7.70
2023-01-15T11:25:15.760Z,5.70
2023-01-15T11:31:15.805Z,5.00
2023-01-15T11:37:15.749Z,4.20
2023-01-15T11:43:15.765Z,6.40
2023-01-15T11:49:15.786Z,3.50
2023-01-15T11:55:15.767Z,5.30
2023-01-15T12:01:15.779Z,6.30
2023-01-15T12:07:15.806Z,6.50
2023-01-15T12:13:15.813Z,6.70
2023-01-15T12:19:15.784Z,4.20
2023-01-15T12:25:15.780Z,12.70
2023-01-15T12:31:15.840Z,5.40
2023-01-15T12:37:15.824Z,4.50
2023-01-15T12:43:15.849Z,8.40
2023-01-15T12:49:15.831Z,8.50
2023-01-15T12:55:15.821Z,7.60
2023-01-15T13:01:16.064Z,6.60
2023-01-15T13:07:15.838Z,6.80
2023-01-15T13:13:15.830Z,9.70
2023-01-15T13:19:15.867Z,7.60
2023-01-15T13:25:15.876Z,9.20
2023-01-15T13:31:15.873Z,8.00
2023-01-15T13:37:15.881Z,8.50
2023-01-15T13:43:15.895Z,7.10
2023-01-15T13:55:16.355Z,9.40
2023-01-15T14:07:16.752Z,8.90
2023-01-15T14:19:17.219Z,9.90
2023-01-15T14:31:17.669Z,8.40
2023-01-15T14:43:18.139Z,7.80
2023-01-15T14:55:18.592Z,10.30
2023-01-15T15:07:19.059Z,16.60
2023-01-15T15:19:19.540Z,12.90
2023-01-15T15:31:20.022Z,12.70
2023-01-15T15:43:20.448Z,19.50
2023-01-15T15:55:20.868Z,22.70
2023-01-15T16:07:21.375Z,21.40
2023-01-15T16:19:21.792Z,17.10
2023-01-15T16:31:22.243Z,18.00
2023-01-15T16:43:22.689Z,41.20
2023-01-15T16:55:23.083Z,21.00
2023-01-15T17:07:23.567Z,15.10
2023-01-15T17:19:23.998Z,13.90
2023-01-15T17:31:24.481Z,31.10
2023-01-15T17:43:24.895Z,16.70
2023-01-15T17:55:25.375Z,16.70
2023-01-15T18:07:25.808Z,41.00
2023-01-15T18:19:26.253Z,23.40
2023-01-15T18:31:26.769Z,32.70
2023-01-15T18:43:27.183Z,31.20
2023-01-15T18:55:27.636Z,25.90
2023-01-15T19:07:28.057Z,29.80
2023-01-15T19:19:28.523Z,58.60
2023-01-15T19:31:29.031Z,42.60
2023-01-15T19:43:29.418Z,35.90
2023-01-15T19:55:29.917Z,42.10
2023-01-15T20:07:30.328Z,44.80
2023-01-15T20:19:30.811Z,50.40
2023-01-15T20:31:31.313Z,41.90
2023-01-15T20:43:31.699Z,61.70
2023-01-15T20:55:34.028Z,53.90
2023-01-15T21:07:32.630Z,53.70
2023-01-15T21:19:33.075Z,54.50
2023-01-15T21:31:33.544Z,51.10
2023-01-15T21:43:33.927Z,64.90
2023-01-15T21:55:34.416Z,54.00
2023-01-15T22:07:34.902Z,47.40
2023-01-15T22:19:35.304Z,45.40
2023-01-15T22:31:35.768Z,42.20
2023-01-15T22:43:36.255Z,26.10
2023-01-15T22:55:36.706Z,31.10
2023-01-15T23:07:37.128Z,42.80
2023-01-15T23:19:37.538Z,46.40
2023-01-15T23:31:38.048Z,36.20
2023-01-15T23:43:38.497Z,38.30
2023-01-15T23:55:38.938Z,36.40
